Time;durP1;ratioP1;P1;durP2;ratioP2;P2;SDS_P1;SDS_P2;PMS_P1;PMS_P2;Temp;Humidity;BMP_temperature;BMP_pressure;BME280_temperature;BME280_humidity;BME280_pressure;Samples;Min_cycle;Max_cycle;Signal;HPM_P1;HPM_P2
2021/04/02 00:00:30;;;;;;;10.13;5.32;;;;;;;8.96;58.22;100923.31;6219802;23;20059;-78
2021/04/02 00:02:56;;;;;;;11.70;5.35;;;;;;;8.99;58.53;100906.47;6223694;23;20028;-78
2021/04/02 00:05:23;;;;;;;9.63;5.25;;;;;;;9.03;58.38;100921.31;6220316;23;20115;-80
2021/04/02 00:07:49;;;;;;;10.30;4.95;;;;;;;8.96;58.37;100915.38;6225066;23;20012;-79
2021/04/02 00:10:21;;;;;;;13.15;5.30;;;;;;;8.98;58.71;100921.44;6218122;23;20059;-81
2021/04/02 00:12:48;;;;;;;9.27;5.65;;;;;;;8.96;58.85;100914.50;6221451;23;20020;-79
2021/04/02 00:15:19;;;;;;;9.60;5.95;;;;;;;8.92;59.18;100911.09;6224893;23;20028;-78
2021/04/02 00:17:50;;;;;;;11.88;5.32;;;;;;;8.92;59.12;100920.78;6226713;23;20024;-79
2021/04/02 00:20:18;;;;;;;11.27;5.68;;;;;;;8.85;59.27;100911.31;6220502;23;20076;-80
2021/04/02 00:22:45;;;;;;;11.55;5.93;;;;;;;8.88;59.74;100921.78;6215439;23;20033;-79
2021/04/02 00:25:15;;;;;;;8.35;5.32;;;;;;;8.87;59.90;100931.50;6193689;23;20025;-80
2021/04/02 00:27:41;;;;;;;7.93;5.80;;;;;;;8.84;59.88;100930.72;6221530;23;20028;-79
2021/04/02 00:30:21;;;;;;;9.55;5.47;;;;;;;8.80;60.60;100932.63;6224326;23;20024;-79
2021/04/02 00:32:48;;;;;;;9.65;5.43;;;;;;;8.72;60.55;100929.34;6224796;23;20051;-80
2021/04/02 00:35:14;;;;;;;10.38;5.75;;;;;;;8.70;60.72;100934.66;6221337;23;20016;-78
2021/04/02 00:37:41;;;;;;;9.82;5.65;;;;;;;8.70;61.07;100941.72;6216732;23;20144;-81
2021/04/02 00:40:24;;;;;;;10.88;6.53;;;;;;;8.68;60.75;100943.53;6222975;23;20407;-79
2021/04/02 00:42:50;;;;;;;11.23;6.03;;;;;;;8.64;61.46;100940.16;6217638;23;20129;-79
2021/04/02 00:45:18;;;;;;;10.63;6.03;;;;;;;8.66;61.09;100935.66;6213144;23;20159;-82
2021/04/02 00:47:46;;;;;;;9.90;6.10;;;;;;;8.59;61.57;100931.50;6215217;23;20182;-80
2021/04/02 00:50:23;;;;;;;9.05;6.20;;;;;;;8.56;61.39;100930.72;6216153;23;20079;-79
2021/04/02 00:52:49;;;;;;;11.35;6.40;;;;;;;8.54;61.35;100925.47;6206880;23;20027;-82
2021/04/02 00:55:16;;;;;;;12.88;6.45;;;;;;;8.49;62.05;100926.53;6217923;23;20415;-82
2021/04/02 00:57:42;;;;;;;10.00;6.45;;;;;;;8.44;62.19;100927.53;6217161;23;20082;-79
2021/04/02 01:00:10;;;;;;;9.90;6.68;;;;;;;8.43;62.63;100927.56;6216581;23;20036;-78
2021/04/02 01:02:37;;;;;;;9.25;6.32;;;;;;;8.33;62.62;100923.50;6220070;23;20048;-78
2021/04/02 01:05:09;;;;;;;8.98;6.47;;;;;;;8.33;62.81;100932.28;6218401;23;20103;-78
2021/04/02 01:07:37;;;;;;;11.52;6.70;;;;;;;8.37;63.15;100938.31;6221635;23;20024;-78
2021/04/02 01:10:12;;;;;;;10.50;6.78;;;;;;;8.35;63.16;100926.94;6220149;23;20036;-77
2021/04/02 01:12:38;;;;;;;8.77;6.93;;;;;;;8.34;63.30;100935.78;6196280;23;20020;-78
2021/04/02 01:15:16;;;;;;;9.88;7.40;;;;;;;8.28;63.17;100922.72;6200931;23;20046;-78
2021/04/02 01:17:46;;;;;;;12.70;7.28;;;;;;;8.28;63.45;100931.50;6231269;23;20096;-81
2021/04/02 01:20:13;;;;;;;12.40;7.33;;;;;;;8.25;64.08;100923.66;6232296;23;20017;-79
2021/04/02 01:22:43;;;;;;;11.70;7.50;;;;;;;8.22;64.17;100923.75;6230817;23;20436;-83
2021/04/02 01:25:43;;;;;;;13.00;7.67;;;;;;;8.24;64.05;100927.22;6229598;23;20020;-79
2021/04/02 01:28:26;;;;;;;11.02;7.57;;;;;;;8.18;64.39;100926.53;6229224;23;20059;-80
2021/04/02 01:30:56;;;;;;;10.77;7.65;;;;;;;8.21;64.13;100926.44;6231884;23;20031;-79
2021/04/02 01:33:23;;;;;;;12.35;7.82;;;;;;;8.22;64.62;100930.81;6232749;23;20056;-80
2021/04/02 01:35:55;;;;;;;9.20;7.20;;;;;;;8.23;64.31;100928.13;6226485;23;20095;-79
2021/04/02 01:38:34;;;;;;;12.15;7.82;;;;;;;8.25;64.22;100934.22;6225528;23;20036;-78
2021/04/02 01:41:02;;;;;;;10.50;7.30;;;;;;;8.22;64.14;100936.06;6222427;23;20017;-79
2021/04/02 01:43:48;;;;;;;10.70;7.72;;;;;;;8.20;64.42;100935.25;6220752;23;20035;-79
2021/04/02 01:46:17;;;;;;;11.60;7.30;;;;;;;8.21;64.56;100931.72;6224364;23;20028;-80
2021/04/02 01:48:45;;;;;;;11.90;7.65;;;;;;;8.20;64.52;100935.25;6226485;23;20059;-78
2021/04/02 01:51:14;;;;;;;11.95;8.48;;;;;;;8.19;64.66;100936.16;6227962;23;20077;-78
2021/04/02 01:53:48;;;;;;;12.20;7.65;;;;;;;8.14;64.77;100948.63;6233487;23;20028;-81
2021/04/02 01:56:14;;;;;;;10.23;7.53;;;;;;;8.07;65.43;100938.25;6234412;23;20012;-80
2021/04/02 01:58:43;;;;;;;8.00;7.20;;;;;;;8.06;65.46;100939.16;6232936;23;20031;-81
2021/04/02 02:01:11;;;;;;;11.95;7.28;;;;;;;8.06;65.37;100927.72;6235843;23;20028;-79
2021/04/02 02:03:40;;;;;;;10.10;7.35;;;;;;;7.99;66.04;100932.34;6238755;23;20015;-81
2021/04/02 02:06:08;;;;;;;10.90;8.18;;;;;;;7.89;65.96;100922.06;6209380;23;20021;-80
2021/04/02 02:08:36;;;;;;;11.23;8.00;;;;;;;7.83;66.30;100920.47;6231539;23;20108;-79
2021/04/02 02:11:13;;;;;;;9.80;7.93;;;;;;;7.86;65.89;100920.41;6202679;23;20548;-83
2021/04/02 02:13:53;;;;;;;11.95;8.60;;;;;;;7.79;66.70;100923.22;6218591;23;20041;-79
2021/04/02 02:16:21;;;;;;;14.82;8.70;;;;;;;7.80;66.97;100924.97;6222076;23;20051;-79
2021/04/02 02:18:55;;;;;;;14.82;8.48;;;;;;;7.74;66.54;100918.06;6220822;23;20052;-78
2021/04/02 02:21:22;;;;;;;11.30;8.70;;;;;;;7.72;66.54;100923.38;6223251;23;20080;-78
2021/04/02 02:23:49;;;;;;;10.82;8.73;;;;;;;7.68;66.53;100912.97;6226266;23;20025;-78
2021/04/02 02:26:17;;;;;;;11.98;8.43;;;;;;;7.59;66.97;100916.72;6218436;23;20020;-79
2021/04/02 02:28:44;;;;;;;11.57;8.50;;;;;;;7.59;66.81;100916.72;6215038;23;20075;-81
2021/04/02 02:31:12;;;;;;;11.43;8.65;;;;;;;7.61;66.63;100904.38;6190021;23;20434;-81
2021/04/02 02:33:40;;;;;;;13.80;8.80;;;;;;;7.60;67.19;100912.31;6212626;23;20059;-79
2021/04/02 02:36:07;;;;;;;9.48;8.13;;;;;;;7.62;66.88;100915.78;6213835;23;20055;-78
2021/04/02 02:38:34;;;;;;;13.60;8.90;;;;;;;7.60;67.12;100907.03;6215194;23;20064;-81
2021/04/02 02:41:01;;;;;;;13.63;8.95;;;;;;;7.61;66.77;100912.28;6213066;23;20573;-82
2021/04/02 02:43:30;;;;;;;11.85;9.02;;;;;;;7.57;66.65;100912.38;6216334;23;20056;-81
2021/04/02 02:45:56;;;;;;;12.25;8.63;;;;;;;7.51;66.76;100923.09;6212747;23;20096;-78
2021/04/02 02:48:22;;;;;;;10.38;8.30;;;;;;;7.39;66.93;100919.03;6185820;23;20060;-79
2021/04/02 02:50:53;;;;;;;11.43;8.32;;;;;;;7.39;67.24;100919.88;6212365;23;20025;-78
2021/04/02 02:53:23;;;;;;;12.70;9.07;;;;;;;7.40;67.14;100913.69;6212997;23;20096;-82
2021/04/02 02:55:52;;;;;;;13.93;8.27;;;;;;;7.45;66.96;100918.84;6215446;23;20072;-80
2021/04/02 02:58:21;;;;;;;11.18;8.05;;;;;;;7.38;66.88;100923.44;6213487;23;20031;-80
2021/04/02 03:00:49;;;;;;;13.13;8.93;;;;;;;7.42;67.09;100925.97;6212819;23;20289;-80
2021/04/02 03:03:17;;;;;;;12.40;9.20;;;;;;;7.40;67.10;100924.22;6218991;23;20024;-79
2021/04/02 03:05:48;;;;;;;13.35;9.00;;;;;;;7.46;67.00;100924.97;6216553;23;20048;-80
2021/04/02 03:08:21;;;;;;;9.52;7.90;;;;;;;7.45;66.81;100921.47;6217777;23;20024;-85
2021/04/02 03:10:47;;;;;;;12.02;8.48;;;;;;;7.46;66.99;100925.84;6219579;23;20047;-80
2021/04/02 03:13:19;;;;;;;9.88;8.48;;;;;;;7.39;66.93;100917.25;6217719;23;20003;-79
2021/04/02 03:15:46;;;;;;;12.23;8.13;;;;;;;7.38;66.75;100919.94;6218360;23;20214;-78
2021/04/02 03:18:17;;;;;;;9.15;7.78;;;;;;;7.44;67.21;100921.50;6214771;23;20095;-79
2021/04/02 03:20:44;;;;;;;11.02;8.00;;;;;;;7.44;66.76;100916.25;6189577;23;20063;-79
2021/04/02 03:23:14;;;;;;;10.48;8.02;;;;;;;7.47;66.45;100909.13;6189849;23;20051;-78
2021/04/02 03:25:42;;;;;;;10.15;8.02;;;;;;;7.45;66.02;100923.25;6213766;23;20600;-79
2021/04/02 03:28:10;;;;;;;10.15;7.63;;;;;;;7.44;66.15;100927.66;6214471;23;20020;-79
2021/04/02 03:30:37;;;;;;;9.80;7.72;;;;;;;7.40;66.47;100920.72;6221541;23;20024;-79
2021/04/02 03:33:03;;;;;;;8.77;7.55;;;;;;;7.39;66.47;100919.03;6223136;23;20064;-82
2021/04/02 03:35:30;;;;;;;10.63;8.30;;;;;;;7.40;66.95;100929.50;6222590;23;20031;-77
2021/04/02 03:37:56;;;;;;;9.90;7.65;;;;;;;7.44;66.21;100929.41;6218135;23;20096;-79
2021/04/02 03:40:25;;;;;;;12.65;9.80;;;;;;;7.44;66.55;100930.28;6222502;23;20055;-79
2021/04/02 03:42:55;;;;;;;9.70;7.30;;;;;;;7.43;66.21;100927.69;6218214;23;20032;-79
2021/04/02 03:45:24;;;;;;;9.07;7.47;;;;;;;7.39;66.31;100922.53;6222347;23;20100;-83
2021/04/02 03:47:52;;;;;;;11.15;7.80;;;;;;;7.43;65.71;100930.31;6221908;23;20434;-78
2021/04/02 03:50:21;;;;;;;10.23;7.30;;;;;;;7.40;65.30;100926.84;6218482;23;20104;-79
2021/04/02 03:53:02;;;;;;;11.13;7.60;;;;;;;7.47;65.13;100935.47;6226709;23;20016;-77
2021/04/02 03:55:30;;;;;;;7.90;6.93;;;;;;;7.46;64.90;100930.25;6229963;23;20036;-80
2021/04/02 03:57:59;;;;;;;9.80;8.00;;;;;;;7.46;64.17;100932.88;6224239;23;20390;-84
2021/04/02 04:00:31;;;;;;;9.40;7.20;;;;;;;7.43;64.10;100935.59;6220964;23;20122;-80
2021/04/02 04:03:00;;;;;;;10.10;7.07;;;;;;;7.43;64.48;100930.31;6219579;23;20044;-81
2021/04/02 04:05:28;;;;;;;9.52;7.10;;;;;;;7.45;64.62;100939.06;6221729;23;20337;-81
2021/04/02 04:07:56;;;;;;;7.78;6.70;;;;;;;7.49;64.30;100935.44;6201803;23;20052;-80
2021/04/02 04:10:24;;;;;;;9.43;6.97;;;;;;;7.47;64.32;100934.63;6222284;23;20131;-79
2021/04/02 04:12:55;;;;;;;9.52;7.68;;;;;;;7.47;63.75;100935.47;6222151;23;20090;-80
2021/04/02 04:15:23;;;;;;;7.60;6.65;;;;;;;7.53;64.02;100931.84;6193221;23;20059;-82
2021/04/02 04:17:50;;;;;;;8.32;7.03;;;;;;;7.49;63.40;100924.91;6221753;23;20055;-80
2021/04/02 04:20:18;;;;;;;9.95;7.63;;;;;;;7.51;63.68;100931.00;6218031;23;20111;-80
2021/04/02 04:22:48;;;;;;;9.15;7.70;;;;;;;7.56;63.50;100934.38;6219068;23;20416;-80
2021/04/02 04:25:18;;;;;;;8.60;7.60;;;;;;;7.50;63.64;100930.16;6220604;23;20079;-81
2021/04/02 04:27:45;;;;;;;8.95;7.15;;;;;;;7.53;64.15;100932.72;6219730;23;20025;-81
2021/04/02 04:30:13;;;;;;;9.90;7.43;;;;;;;7.53;63.93;100932.72;6218875;23;20055;-79
2021/04/02 04:32:40;;;;;;;7.80;6.82;;;;;;;7.59;63.94;100937.81;6221617;23;20028;-80
2021/04/02 04:35:14;;;;;;;8.40;7.43;;;;;;;7.67;63.89;100938.47;6220546;23;20098;-82
2021/04/02 04:37:42;;;;;;;8.32;7.40;;;;;;;7.70;63.39;100937.53;6234850;23;20032;-80
2021/04/02 04:40:11;;;;;;;9.20;7.20;;;;;;;7.69;63.97;100938.44;6232984;23;20017;-81
2021/04/02 04:42:38;;;;;;;8.73;7.05;;;;;;;7.69;63.88;100933.16;6231952;23;20012;-83
2021/04/02 04:45:07;;;;;;;8.90;7.35;;;;;;;7.61;63.52;100933.34;6230647;23;20024;-82
2021/04/02 04:47:35;;;;;;;8.77;7.32;;;;;;;7.45;63.92;100933.78;6223529;23;20016;-78
2021/04/02 04:50:04;;;;;;;8.90;7.20;;;;;;;7.43;64.29;100938.22;6220363;23;20044;-81
2021/04/02 04:52:31;;;;;;;8.55;7.20;;;;;;;7.39;64.54;100948.88;6224523;23;20059;-80
2021/04/02 04:55:01;;;;;;;12.07;7.53;;;;;;;7.35;64.53;100943.72;6226605;23;20070;-80
2021/04/02 04:57:32;;;;;;;10.02;7.15;;;;;;;7.31;64.03;100948.19;6225172;23;20047;-79
2021/04/02 05:00:00;;;;;;;9.75;7.82;;;;;;;7.29;63.88;100946.47;6203013;23;20031;-81
2021/04/02 05:02:28;;;;;;;8.10;7.22;;;;;;;7.26;63.74;100950.06;6202041;23;20137;-80
2021/04/02 05:04:57;;;;;;;8.90;7.43;;;;;;;7.25;63.55;100952.72;6224935;23;20205;-79
2021/04/02 05:07:24;;;;;;;9.85;7.63;;;;;;;7.25;62.90;100945.69;6225837;23;20066;-78
2021/04/02 05:09:53;;;;;;;8.30;6.75;;;;;;;7.28;62.86;100940.34;6230352;23;20030;-79
2021/04/02 05:12:21;;;;;;;10.40;7.00;;;;;;;7.27;62.20;100937.75;6230008;23;20442;-80
2021/04/02 05:14:49;;;;;;;8.55;6.50;;;;;;;7.29;61.97;100942.09;6237309;23;20004;-81
2021/04/02 05:17:18;;;;;;;8.80;6.90;;;;;;;7.30;61.85;100943.81;6239611;23;20020;-80
2021/04/02 05:19:47;;;;;;;8.38;6.75;;;;;;;7.32;61.47;100949.03;6214999;23;20011;-85
2021/04/02 05:22:13;;;;;;;6.95;6.22;;;;;;;7.32;61.68;100949.03;6239732;23;20024;-82
2021/04/02 05:24:39;;;;;;;8.23;6.68;;;;;;;7.38;61.69;100956.81;6233416;23;20024;-81
2021/04/02 05:27:06;;;;;;;9.38;6.15;;;;;;;7.47;60.64;100959.19;6219862;23;20391;-83
2021/04/02 05:29:33;;;;;;;7.25;5.85;;;;;;;7.48;60.28;100952.16;6193311;23;20052;-80
2021/04/02 05:32:00;;;;;;;8.55;6.35;;;;;;;7.45;60.18;100952.25;6225924;23;20044;-81
2021/04/02 05:34:26;;;;;;;6.88;6.10;;;;;;;7.45;60.18;100958.38;6221019;23;20096;-80
2021/04/02 05:36:52;;;;;;;6.72;6.03;;;;;;;7.50;60.41;100953.00;6223048;23;20033;-85
2021/04/02 05:39:18;;;;;;;7.30;6.45;;;;;;;7.54;59.85;100971.34;6191830;23;20048;-81
2021/04/02 05:41:52;;;;;;;7.25;5.90;;;;;;;7.65;59.84;100969.28;6219783;23;20047;-81
2021/04/02 05:44:29;;;;;;;6.75;5.50;;;;;;;7.68;59.95;100965.72;6190964;23;20024;-82
2021/04/02 05:46:59;;;;;;;7.97;6.07;;;;;;;7.71;60.37;100970.91;6215451;23;20107;-78
2021/04/02 05:49:26;;;;;;;7.63;6.10;;;;;;;7.73;60.08;100966.44;6217236;23;20029;-80
2021/04/02 05:51:53;;;;;;;9.00;6.22;;;;;;;7.74;60.06;100969.03;6189308;23;20079;-79
2021/04/02 05:54:28;;;;;;;9.15;6.45;;;;;;;7.72;60.78;100969.97;6214003;23;20107;-79
2021/04/02 05:56:54;;;;;;;7.63;6.20;;;;;;;7.79;63.05;100975.97;6216421;23;20481;-79
2021/04/02 05:59:21;;;;;;;8.23;6.22;;;;;;;7.83;60.71;100982.88;6186248;23;20802;-78
2021/04/02 06:01:48;;;;;;;7.93;6.07;;;;;;;7.93;60.31;100979.97;6214685;23;20020;-82
2021/04/02 06:04:14;;;;;;;8.05;6.60;;;;;;;7.97;59.81;100971.06;6215052;23;20072;-79
2021/04/02 06:06:40;;;;;;;8.00;5.93;;;;;;;8.05;60.19;100982.25;6212515;23;20064;-79
2021/04/02 06:09:07;;;;;;;9.43;6.32;;;;;;;8.08;59.56;100987.47;6213656;23;20526;-77
2021/04/02 06:11:33;;;;;;;7.13;6.10;;;;;;;8.13;59.45;100987.34;6211627;23;20337;-80
2021/04/02 06:13:59;;;;;;;6.72;5.65;;;;;;;8.18;59.60;100984.59;6212229;23;20104;-81
2021/04/02 06:16:25;;;;;;;9.68;6.22;;;;;;;8.24;59.58;100987.03;6211576;23;20542;-79
2021/04/02 06:18:56;;;;;;;8.60;6.15;;;;;;;8.27;58.71;100984.31;6185881;23;20058;-79
2021/04/02 06:21:25;;;;;;;;;;;;;;;8.36;58.97;100994.63;6214473;23;20009;-78
2021/04/02 06:23:52;;;;;;;7.43;6.25;;;;;;;8.33;58.37;100979.78;6184421;23;20235;-80
2021/04/02 06:26:18;;;;;;;9.00;5.80;;;;;;;8.36;60.38;100979.66;6212533;23;20063;-81
2021/04/02 06:28:45;;;;;;;6.65;5.70;;;;;;;8.43;58.80;100977.72;6188109;23;20063;-84
2021/04/02 06:31:14;;;;;;;8.82;6.10;;;;;;;8.37;58.39;100972.63;6220881;23;20021;-79
2021/04/02 06:33:45;;;;;;;9.43;6.53;;;;;;;8.35;58.84;100982.34;6222330;23;20032;-81
2021/04/02 06:36:23;;;;;;;6.35;5.40;;;;;;;8.37;58.99;100997.22;6185592;23;20048;-78
2021/04/02 06:38:52;;;;;;;7.47;6.47;;;;;;;8.47;59.11;100999.63;6220094;23;20021;-81
2021/04/02 06:41:19;;;;;;;10.20;6.18;;;;;;;8.53;58.54;100984.47;6224673;23;20044;-80
2021/04/02 06:43:50;;;;;;;8.00;6.55;;;;;;;8.56;58.41;100987.00;6224717;23;20055;-81
2021/04/02 06:46:23;;;;;;;9.25;6.30;;;;;;;8.51;57.99;100985.41;6215211;23;20044;-78
2021/04/02 06:48:50;;;;;;;7.20;6.13;;;;;;;8.51;58.43;100988.91;6213463;23;20013;-79
2021/04/02 06:51:18;;;;;;;6.90;6.20;;;;;;;8.49;58.94;100990.75;6216825;23;20366;-80
2021/04/02 06:53:50;;;;;;;7.53;6.35;;;;;;;8.56;58.29;100997.56;6228136;23;20052;-78
2021/04/02 06:56:18;;;;;;;7.60;5.90;;;;;;;8.55;58.92;101000.25;6224847;23;20052;-78
2021/04/02 06:58:45;;;;;;;7.97;6.13;;;;;;;8.60;58.70;100999.22;6217017;23;20019;-79
2021/04/02 07:01:16;;;;;;;7.60;6.10;;;;;;;8.67;58.74;101006.03;6191404;23;20025;-78
2021/04/02 07:03:44;;;;;;;7.82;6.40;;;;;;;8.76;58.42;101010.19;6214337;23;20333;-79
2021/04/02 07:06:14;;;;;;;7.78;6.38;;;;;;;8.79;58.46;101002.19;6219390;23;20048;-78
2021/04/02 07:08:41;;;;;;;8.13;6.38;;;;;;;8.82;58.08;101012.63;6218774;23;20029;-79
2021/04/02 07:11:10;;;;;;;7.80;5.80;;;;;;;8.78;57.98;101003.97;6225802;23;20071;-79
2021/04/02 07:13:49;;;;;;;8.82;6.82;;;;;;;8.69;58.48;101009.50;6227120;23;20095;-78
2021/04/02 07:16:20;;;;;;;7.80;6.43;;;;;;;8.72;58.47;101011.19;6223722;23;20107;-83
2021/04/02 07:18:47;;;;;;;8.20;6.65;;;;;;;8.76;58.54;101010.19;6228413;23;20059;-78
2021/04/02 07:21:14;;;;;;;8.65;6.78;;;;;;;8.79;57.84;101013.63;6233677;23;20115;-80
2021/04/02 07:23:41;;;;;;;8.85;7.00;;;;;;;8.76;58.08;101011.06;6232977;23;20055;-80
2021/04/02 07:26:12;;;;;;;9.38;6.85;;;;;;;8.84;57.88;101013.47;6228156;23;20025;-78
2021/04/02 07:28:43;;;;;;;8.15;6.72;;;;;;;8.85;57.91;101014.31;6226622;23;20031;-78
2021/04/02 07:31:13;;;;;;;8.80;6.90;;;;;;;8.79;57.88;101010.97;6203113;23;20025;-78
2021/04/02 07:33:44;;;;;;;8.80;7.15;;;;;;;8.86;57.98;101010.78;6225543;23;20111;-78
2021/04/02 07:36:13;;;;;;;9.35;7.13;;;;;;;8.92;58.33;101016.75;6221943;23;20016;-78
2021/04/02 07:38:40;;;;;;;9.48;7.20;;;;;;;9.00;57.58;101022.66;6225076;23;20016;-78
2021/04/02 07:41:12;;;;;;;9.90;7.50;;;;;;;8.98;57.39;101026.25;6224999;23;20028;-79
2021/04/02 07:43:44;;;;;;;7.75;6.80;;;;;;;9.00;58.59;101020.00;6230002;23;20021;-80
2021/04/02 07:46:13;;;;;;;8.43;6.97;;;;;;;9.03;57.51;101017.28;6218064;23;20025;-80
2021/04/02 07:48:39;;;;;;;9.98;6.82;;;;;;;9.03;57.71;101014.63;6219036;23;20104;-79
2021/04/02 07:51:05;;;;;;;9.68;7.20;;;;;;;9.15;57.35;101018.66;6222441;23;20107;-78
2021/04/02 07:53:34;;;;;;;10.93;6.60;;;;;;;9.06;58.76;101013.69;6221204;23;20041;-79
2021/04/02 07:56:16;;;;;;;10.50;7.30;;;;;;;9.00;57.74;101013.84;6218542;23;20052;-81
2021/04/02 07:58:53;;;;;;;8.60;7.05;;;;;;;9.06;57.53;101017.19;6194875;23;20041;-80
2021/04/02 08:01:23;;;;;;;8.70;7.10;;;;;;;9.10;58.71;101018.84;6228192;23;20028;-81
2021/04/02 08:03:51;;;;;;;;;;;;;;;9.25;57.46;101019.25;6225577;23;20111;-80
2021/04/02 08:06:38;;;;;;;9.13;7.15;;;;;;;9.11;56.60;101010.00;6224189;23;20068;-80
2021/04/02 08:09:09;;;;;;;8.77;7.13;;;;;;;9.22;56.83;101022.84;6218841;23;20074;-79
2021/04/02 08:11:37;;;;;;;;;;;;;;;9.27;56.23;101028.00;6217524;23;20516;-79
2021/04/02 08:14:12;;;;;;;8.75;6.88;;;;;;;9.19;56.17;101035.28;6219128;23;19916;-79
2021/04/02 08:16:46;;;;;;;8.05;6.65;;;;;;;9.12;56.66;101027.59;6216246;23;20028;-81
2021/04/02 08:19:25;;;;;;;9.98;6.80;;;;;;;9.11;56.49;101023.22;6211335;23;20132;-79
2021/04/02 08:21:59;;;;;;;8.80;6.60;;;;;;;9.24;56.65;101028.97;6192095;23;20016;-80
2021/04/02 08:24:34;;;;;;;8.13;6.35;;;;;;;9.17;56.19;101024.78;6195862;23;20076;-80
2021/04/02 08:27:02;;;;;;;8.13;6.70;;;;;;;9.13;56.92;101020.47;6218166;23;20025;-78
2021/04/02 08:29:32;;;;;;;7.38;6.53;;;;;;;9.22;56.27;101030.78;6214936;23;20027;-78
2021/04/02 08:32:01;;;;;;;9.07;6.82;;;;;;;9.26;56.05;101035.06;6211140;23;20025;-80
2021/04/02 08:34:30;;;;;;;9.27;6.65;;;;;;;9.27;56.23;101036.81;6214065;23;20025;-78
2021/04/02 08:37:01;;;;;;;9.55;7.00;;;;;;;9.26;56.24;101042.13;6210608;23;20699;-81
2021/04/02 08:39:28;;;;;;;9.57;6.90;;;;;;;9.28;56.50;101035.91;6212066;23;20404;-80
2021/04/02 08:42:02;;;;;;;8.05;6.38;;;;;;;9.29;56.89;101037.59;6187617;23;20059;-80
2021/04/02 08:44:40;;;;;;;8.93;6.85;;;;;;;9.31;56.60;101040.19;6215300;23;20024;-79
2021/04/02 08:47:08;;;;;;;8.45;6.30;;;;;;;9.35;56.33;101039.19;6212287;23;20115;-80
2021/04/02 08:49:41;;;;;;;9.15;7.18;;;;;;;9.36;56.22;101044.44;6212025;23;20474;-82
2021/04/02 08:52:09;;;;;;;7.80;6.53;;;;;;;9.27;56.05;101042.09;6213498;23;20458;-82
2021/04/02 08:54:35;;;;;;;9.38;7.50;;;;;;;9.04;56.38;101041.91;6212191;23;20024;-83
2021/04/02 08:57:03;;;;;;;8.23;6.90;;;;;;;8.93;56.62;101038.75;6215346;23;20043;-80
2021/04/02 08:59:34;;;;;;;8.50;6.72;;;;;;;9.01;57.20;101042.00;6208546;23;20512;-79
2021/04/02 09:02:01;;;;;;;7.57;6.57;;;;;;;9.19;57.05;101045.88;6191573;23;20103;-79
2021/04/02 09:04:28;;;;;;;9.32;6.78;;;;;;;9.27;56.39;101033.28;6217225;23;20442;-79
2021/04/02 09:06:55;;;;;;;7.65;6.50;;;;;;;9.43;55.65;101040.69;6213737;23;20078;-80
2021/04/02 09:09:26;;;;;;;8.40;6.10;;;;;;;9.49;55.42;101039.63;6212653;23;20086;-80
2021/04/02 09:11:53;;;;;;;8.25;6.63;;;;;;;9.55;54.85;101041.19;6211424;23;20021;-80
2021/04/02 09:14:19;;;;;;;8.10;6.45;;;;;;;9.54;55.35;101036.81;6214062;23;20043;-82
2021/04/02 09:16:47;;;;;;;7.47;6.30;;;;;;;9.59;55.23;101034.91;6215094;23;20111;-81
2021/04/02 09:19:16;;;;;;;8.18;6.30;;;;;;;9.54;54.92;101031.53;6212466;23;20080;-81
2021/04/02 09:21:55;;;;;;;8.32;6.25;;;;;;;9.48;54.94;101036.09;6214392;23;20032;-81
2021/04/02 09:24:22;;;;;;;8.25;6.25;;;;;;;9.54;54.84;101032.41;6213539;23;20529;-79
2021/04/02 09:26:49;;;;;;;7.47;6.28;;;;;;;9.57;54.63;101036.75;6212143;23;20020;-84
2021/04/02 09:29:19;;;;;;;7.70;6.00;;;;;;;9.65;54.71;101035.56;6211856;23;20017;-80
2021/04/02 09:31:45;;;;;;;8.10;6.20;;;;;;;9.65;54.71;101035.56;6184408;23;20029;-80
2021/04/02 09:34:19;;;;;;;7.55;5.90;;;;;;;9.76;54.27;101029.91;6206617;23;20052;-79
2021/04/02 09:36:49;;;;;;;6.97;5.93;;;;;;;9.95;53.98;101044.25;6220056;23;20024;-79
2021/04/02 09:39:23;;;;;;;8.23;6.57;;;;;;;9.95;53.62;101028.38;6223193;23;20134;-86
2021/04/02 09:41:53;;;;;;;9.35;6.22;;;;;;;10.07;53.44;101041.16;6223042;23;20352;-79
2021/04/02 09:44:33;;;;;;;8.90;6.40;;;;;;;10.04;54.00;101036.00;6215145;23;20016;-79
2021/04/02 09:47:04;;;;;;;7.28;5.93;;;;;;;10.08;53.67;101036.75;6213314;23;20103;-80
2021/04/02 09:49:32;;;;;;;7.72;6.85;;;;;;;10.13;53.96;101032.16;6211669;23;20024;-79
2021/04/02 09:52:01;;;;;;;8.73;6.15;;;;;;;10.25;52.51;101028.25;6214333;23;20327;-80
2021/04/02 09:54:31;;;;;;;8.00;6.05;;;;;;;10.18;52.94;101025.84;6214079;23;20020;-80
2021/04/02 09:57:06;;;;;;;8.27;6.25;;;;;;;10.25;52.54;101026.47;6188239;23;20036;-80
2021/04/02 09:59:33;;;;;;;8.02;6.53;;;;;;;10.30;52.46;101026.31;6210756;23;20021;-84
2021/04/02 10:01:59;;;;;;;8.95;6.53;;;;;;;10.38;51.97;101026.91;6214111;23;20442;-80
2021/04/02 10:04:26;;;;;;;8.30;6.10;;;;;;;10.49;51.73;101024.72;6213025;23;20028;-80
2021/04/02 10:06:54;;;;;;;8.23;6.28;;;;;;;10.59;51.55;101019.94;6191966;23;20070;-85
2021/04/02 10:09:22;;;;;;;7.68;6.28;;;;;;;10.69;51.12;101016.06;6193187;23;20032;-80
2021/04/02 10:11:49;;;;;;;7.18;5.80;;;;;;;10.56;51.79;101023.56;6215474;23;20067;-84
2021/04/02 10:14:17;;;;;;;7.20;6.13;;;;;;;10.59;51.24;101014.66;6214811;23;20360;-83
2021/04/02 10:16:45;;;;;;;8.38;6.75;;;;;;;10.65;50.98;101015.31;6221529;23;20083;-84
2021/04/02 10:19:14;;;;;;;7.20;5.82;;;;;;;10.67;51.14;101018.75;6214991;23;20118;-78
2021/04/02 10:21:42;;;;;;;7.78;6.35;;;;;;;10.79;51.02;101013.00;6215097;23;20020;-82
2021/04/02 10:24:09;;;;;;;7.95;6.10;;;;;;;10.85;50.89;101006.59;6212826;23;20034;-84
2021/04/02 10:26:38;;;;;;;7.80;6.32;;;;;;;10.97;50.52;101005.25;6191474;23;20075;-81
2021/04/02 10:29:06;;;;;;;8.52;6.25;;;;;;;11.08;50.98;101003.03;6214934;23;20036;-80
2021/04/02 10:31:32;;;;;;;7.97;6.38;;;;;;;11.18;49.48;101004.41;6223124;23;20055;-83
2021/04/02 10:33:58;;;;;;;8.65;6.40;;;;;;;10.97;49.52;101010.56;6219074;23;20013;-79
2021/04/02 10:36:26;;;;;;;8.05;6.18;;;;;;;10.91;49.76;101003.69;6219320;23;20029;-79
2021/04/02 10:38:52;;;;;;;9.25;6.60;;;;;;;10.99;49.72;101011.38;6217570;23;20025;-80
2021/04/02 10:41:19;;;;;;;9.73;6.72;;;;;;;11.05;49.51;101005.81;6215172;23;20059;-80
2021/04/02 10:43:45;;;;;;;8.52;6.50;;;;;;;11.17;49.43;101003.56;6215161;23;20053;-81
2021/04/02 10:46:12;;;;;;;8.10;6.28;;;;;;;11.18;48.86;100988.50;6216998;23;20124;-79
2021/04/02 10:48:40;;;;;;;7.53;6.15;;;;;;;11.12;48.88;100997.56;6218526;23;20063;-80
2021/04/02 10:51:08;;;;;;;7.70;6.05;;;;;;;11.21;49.65;100989.25;6223258;23;20147;-84
2021/04/02 10:53:36;;;;;;;7.15;5.82;;;;;;;11.48;49.46;100984.63;6222331;23;20048;-83
2021/04/02 10:56:05;;;;;;;8.77;6.72;;;;;;;11.59;48.45;100958.50;6230945;23;20024;-79
2021/04/02 10:58:32;;;;;;;7.45;5.97;;;;;;;11.86;48.12;100976.84;6223134;23;20120;-80
2021/04/02 11:00:58;;;;;;;9.68;6.85;;;;;;;12.03;47.26;100984.97;6220698;23;20023;-82
2021/04/02 11:03:25;;;;;;;8.35;6.28;;;;;;;12.01;47.65;100988.59;6222968;23;20100;-80
2021/04/02 11:05:51;;;;;;;7.30;6.07;;;;;;;12.05;47.23;100977.78;6232989;23;20020;-86
2021/04/02 11:08:17;;;;;;;8.35;6.55;;;;;;;12.03;48.20;100984.09;6234796;23;20581;-85
2021/04/02 11:10:43;;;;;;;7.22;6.28;;;;;;;12.09;47.80;100971.44;6234849;23;20024;-82
2021/04/02 11:13:09;;;;;;;7.78;6.53;;;;;;;12.19;48.24;100980.69;6232357;23;20099;-83
2021/04/02 11:15:36;;;;;;;8.52;6.15;;;;;;;12.39;46.73;100982.47;6207972;23;20026;-80
2021/04/02 11:18:02;;;;;;;8.80;6.57;;;;;;;12.42;46.53;100976.16;6229417;23;20040;-80
2021/04/02 11:20:28;;;;;;;7.03;5.97;;;;;;;12.40;46.05;100978.88;6223675;23;20072;-80
2021/04/02 11:22:57;;;;;;;8.48;6.45;;;;;;;12.41;46.30;100977.09;6224502;23;20116;-79
2021/04/02 11:25:24;;;;;;;8.85;6.30;;;;;;;12.33;46.58;100971.25;6225724;23;20013;-81
2021/04/02 11:27:51;;;;;;;9.68;6.35;;;;;;;12.37;46.50;100956.91;6224747;23;20025;-80
2021/04/02 11:30:20;;;;;;;8.43;6.40;;;;;;;12.41;46.06;100955.84;6224437;23;20024;-83
2021/04/02 11:32:47;;;;;;;8.55;6.78;;;;;;;12.34;45.32;100960.56;6225275;23;20051;-80
2021/04/02 11:35:16;;;;;;;8.45;6.53;;;;;;;12.36;46.13;100952.53;6223348;23;20021;-79
2021/04/02 11:37:43;;;;;;;7.72;6.05;;;;;;;12.50;45.57;100964.25;6224445;23;20020;-78
2021/04/02 11:40:11;;;;;;;7.32;6.40;;;;;;;12.31;45.40;100968.66;6222737;23;20172;-79